Time;durP1;ratioP1;P1;durP2;ratioP2;P2;SDS_P1;SDS_P2;PMS_P1;PMS_P2;Temp;Humidity;BMP_temperature;BMP_pressure;BME280_temperature;BME280_humidity;BME280_pressure;Samples;Min_cycle;Max_cycle;Signal;HPM_P1;HPM_P2
2022/05/15 00:01:10;;;;;;;15.63;4.45;;;13.40;99.90;;;;;;5029275;28;20045;-60
2022/05/15 00:03:39;;;;;;;11.50;4.68;;;13.30;99.90;;;;;;5027271;28;20049;-62
2022/05/15 00:06:10;;;;;;;14.30;4.90;;;13.30;99.90;;;;;;5009839;28;20038;-61
2022/05/15 00:08:38;;;;;;;13.15;4.28;;;13.30;99.90;;;;;;5017875;28;20044;-62
2022/05/15 00:11:09;;;;;;;10.68;4.13;;;13.30;99.90;;;;;;5028729;28;20652;-61
2022/05/15 00:13:37;;;;;;;11.20;4.32;;;13.30;99.90;;;;;;5029516;28;20053;-60
2022/05/15 00:16:06;;;;;;;13.20;4.53;;;13.30;99.90;;;;;;5029138;28;20045;-61
2022/05/15 00:18:33;;;;;;;14.65;5.28;;;13.30;99.90;;;;;;5026455;28;20041;-61
2022/05/15 00:21:01;;;;;;;13.35;3.95;;;13.30;99.90;;;;;;5011640;28;20049;-61
2022/05/15 00:23:29;;;;;;;17.23;4.45;;;13.30;99.90;;;;;;5029329;28;20164;-61
2022/05/15 00:25:57;;;;;;;13.00;4.88;;;13.30;99.90;;;;;;5028850;28;20042;-61
2022/05/15 00:28:25;;;;;;;13.10;5.13;;;13.20;99.90;;;;;;5029344;28;20409;-62
2022/05/15 00:30:53;;;;;;;12.02;4.85;;;13.20;99.90;;;;;;5028949;28;20060;-61
2022/05/15 00:33:20;;;;;;;12.85;5.45;;;13.20;99.90;;;;;;5027279;28;20056;-61
2022/05/15 00:35:50;;;;;;;13.38;4.32;;;13.20;99.90;;;;;;5022636;28;20049;-63
2022/05/15 00:38:17;;;;;;;10.73;4.20;;;13.20;99.90;;;;;;5040252;28;20046;-60
2022/05/15 00:40:47;;;;;;;13.10;4.18;;;13.10;99.90;;;;;;5029319;28;20060;-61
2022/05/15 00:43:36;;;;;;;;;;;13.10;99.90;;;;;;5029476;28;20049;-60
2022/05/15 00:46:06;;;;;;;15.35;4.50;;;13.10;99.90;;;;;;5029015;28;19928;-60
2022/05/15 00:48:34;;;;;;;10.38;4.20;;;13.10;99.90;;;;;;5026391;28;20061;-60
2022/05/15 00:51:09;;;;;;;11.00;4.30;;;13.10;99.90;;;;;;5011107;28;20045;-61
2022/05/15 00:53:38;;;;;;;12.73;4.90;;;13.10;99.90;;;;;;5022849;28;20057;-62
2022/05/15 00:56:08;;;;;;;12.30;5.07;;;13.10;99.90;;;;;;5031980;28;20052;-62
2022/05/15 00:58:39;;;;;;;;;;;13.10;99.90;;;;;;5031983;28;20061;-61
2022/05/15 01:01:07;;;;;;;10.82;4.28;;;13.10;99.90;;;;;;5032185;28;19925;-61
2022/05/15 01:03:35;;;;;;;12.13;4.72;;;13.20;99.90;;;;;;5020795;28;20049;-61
2022/05/15 01:06:03;;;;;;;12.00;5.10;;;13.20;99.90;;;;;;5028121;28;20068;-61
2022/05/15 01:08:32;;;;;;;13.25;5.45;;;13.20;99.90;;;;;;5014634;28;20053;-66
2022/05/15 01:11:05;;;;;;;10.95;4.72;;;13.20;99.90;;;;;;5033800;28;20275;-65
2022/05/15 01:13:35;;;;;;;14.10;5.32;;;13.20;99.90;;;;;;5031476;28;20041;-65
2022/05/15 01:16:05;;;;;;;16.38;5.75;;;13.20;99.90;;;;;;5030304;28;20037;-66
2022/05/15 01:18:35;;;;;;;11.95;5.25;;;13.30;99.90;;;;;;5030565;28;20103;-65
2022/05/15 01:21:22;;;;;;;14.70;5.38;;;13.30;99.90;;;;;;5055580;28;20512;-62
2022/05/15 01:23:50;;;;;;;11.63;4.65;;;13.30;99.90;;;;;;5064113;28;20048;-60
2022/05/15 01:26:20;;;;;;;14.73;5.47;;;13.40;99.90;;;;;;5031100;28;20065;-64
2022/05/15 01:28:48;;;;;;;14.32;5.20;;;13.30;99.90;;;;;;5063599;28;20490;-61
2022/05/15 01:31:16;;;;;;;14.23;5.60;;;13.40;99.90;;;;;;5028919;28;20428;-63
2022/05/15 01:33:49;;;;;;;16.27;5.75;;;13.40;99.90;;;;;;5053196;28;20054;-62
2022/05/15 01:36:21;;;;;;;13.90;4.60;;;13.40;99.90;;;;;;5032336;28;20500;-66
2022/05/15 01:38:49;;;;;;;13.57;5.45;;;13.40;99.90;;;;;;5064094;28;20053;-62
2022/05/15 01:41:18;;;;;;;16.27;5.32;;;13.50;99.90;;;;;;5036027;28;20037;-61
2022/05/15 01:43:52;;;;;;;12.73;5.35;;;13.50;99.90;;;;;;5065655;28;20400;-62
2022/05/15 01:46:27;;;;;;;16.13;5.47;;;13.50;99.90;;;;;;5029976;28;20394;-66
2022/05/15 01:48:59;;;;;;;9.15;4.72;;;13.50;99.90;;;;;;5032155;28;20041;-64
2022/05/15 01:51:29;;;;;;;9.60;4.70;;;13.50;99.90;;;;;;5031360;28;20045;-62
2022/05/15 01:53:57;;;;;;;16.70;6.20;;;13.50;99.90;;;;;;5064453;28;20044;-64
2022/05/15 01:56:25;;;;;;;15.77;5.50;;;13.50;99.90;;;;;;5033331;28;20500;-65
2022/05/15 01:58:57;;;;;;;19.35;5.95;;;13.50;99.90;;;;;;5031804;28;20048;-64
2022/05/15 02:01:25;;;;;;;14.77;5.78;;;13.50;99.90;;;;;;5032347;28;20477;-63
2022/05/15 02:03:52;;;;;;;18.60;6.40;;;13.60;99.90;;;;;;5031437;28;20057;-61
2022/05/15 02:06:20;;;;;;;16.40;5.68;;;13.60;99.90;;;;;;5064103;28;20041;-66
2022/05/15 02:08:48;;;;;;;15.02;5.45;;;13.60;99.90;;;;;;5064230;28;20045;-66
2022/05/15 02:11:16;;;;;;;12.73;5.68;;;13.60;99.90;;;;;;5031383;28;20038;-67
2022/05/15 02:13:44;;;;;;;15.00;5.68;;;13.60;99.90;;;;;;5031558;28;20042;-67
2022/05/15 02:16:12;;;;;;;15.50;5.85;;;13.70;99.90;;;;;;5035105;28;20425;-67
2022/05/15 02:18:39;;;;;;;14.48;5.25;;;13.70;99.90;;;;;;5031376;28;20041;-66
2022/05/15 02:21:07;;;;;;;21.83;6.18;;;13.80;99.90;;;;;;5030345;28;20040;-66
2022/05/15 02:23:35;;;;;;;13.60;5.97;;;13.80;99.90;;;;;;5030132;28;20046;-67
2022/05/15 02:26:03;;;;;;;18.77;6.68;;;13.90;99.90;;;;;;5031467;28;20045;-65
2022/05/15 02:28:31;;;;;;;15.52;5.97;;;14.00;99.90;;;;;;5031943;28;20045;-67
2022/05/15 02:31:01;;;;;;;12.90;5.00;;;14.00;99.90;;;;;;5031494;28;20042;-60
2022/05/15 02:33:33;;;;;;;18.27;5.95;;;14.10;99.90;;;;;;5031407;28;20056;-60
2022/05/15 02:36:02;;;;;;;13.85;6.07;;;14.10;99.90;;;;;;5063732;28;20056;-60
2022/05/15 02:38:32;;;;;;;14.20;5.53;;;14.20;99.90;;;;;;5022621;28;20045;-60
2022/05/15 02:40:59;;;;;;;22.52;6.55;;;14.20;99.90;;;;;;5012832;28;20054;-61
2022/05/15 02:43:27;;;;;;;14.50;6.30;;;14.20;99.90;;;;;;5028579;28;20053;-67
2022/05/15 02:45:56;;;;;;;15.48;6.55;;;14.20;99.90;;;;;;5063601;28;20037;-67
2022/05/15 02:51:12;;;;;;;24.15;6.55;;;14.20;99.90;;;;;;5031296;28;20060;-67
2022/05/15 02:53:43;;;;;;;17.60;6.50;;;14.20;99.90;;;;;;5030938;28;20053;-67
2022/05/15 02:56:19;;;;;;;19.60;7.25;;;14.20;99.90;;;;;;5062470;28;20045;-66
2022/05/15 02:58:47;;;;;;;21.95;7.43;;;14.20;99.90;;;;;;5063199;28;20049;-67
2022/05/15 03:01:15;;;;;;;21.52;7.55;;;14.10;99.90;;;;;;5064303;28;20041;-66
2022/05/15 03:03:43;;;;;;;17.45;6.78;;;14.10;99.90;;;;;;5032287;28;20052;-66
2022/05/15 03:06:12;;;;;;;17.50;6.78;;;14.00;99.90;;;;;;5031522;28;20061;-67
2022/05/15 03:08:43;;;;;;;20.17;8.23;;;14.00;99.90;;;;;;5031141;28;20053;-67
2022/05/15 03:11:11;;;;;;;23.25;6.95;;;13.90;99.90;;;;;;5030988;28;20045;-64
2022/05/15 03:13:39;;;;;;;20.20;7.18;;;13.90;99.90;;;;;;5062365;28;20057;-67
2022/05/15 03:16:09;;;;;;;19.83;7.55;;;13.80;99.90;;;;;;5030393;28;20042;-67
2022/05/15 03:18:42;;;;;;;21.92;7.13;;;13.80;99.90;;;;;;5031746;28;20056;-67
2022/05/15 03:21:12;;;;;;;18.30;7.70;;;13.80;99.90;;;;;;5064306;28;20041;-67
2022/05/15 03:23:40;;;;;;;19.77;8.15;;;13.70;99.90;;;;;;5030782;28;20049;-67
2022/05/15 03:26:08;;;;;;;18.55;7.78;;;13.70;99.90;;;;;;5030223;28;20049;-67
2022/05/15 03:28:36;;;;;;;19.85;8.75;;;13.70;99.90;;;;;;5034814;28;20041;-67
2022/05/15 03:31:03;;;;;;;21.33;8.65;;;13.60;99.90;;;;;;5030142;28;20489;-63
2022/05/15 03:33:31;;;;;;;19.98;8.27;;;13.60;99.90;;;;;;5030267;28;20069;-67
2022/05/15 03:35:58;;;;;;;21.95;7.68;;;13.50;99.90;;;;;;5030797;28;20408;-67
2022/05/15 03:38:26;;;;;;;18.20;8.30;;;13.40;99.90;;;;;;5031354;28;20046;-67
2022/05/15 03:40:54;;;;;;;22.58;8.60;;;13.40;99.90;;;;;;5031069;28;20480;-66
2022/05/15 03:43:21;;;;;;;19.35;7.85;;;13.30;99.90;;;;;;5029736;28;20056;-67
2022/05/15 03:45:49;;;;;;;26.58;8.45;;;13.30;99.90;;;;;;5030513;28;20060;-67
2022/05/15 03:48:17;;;;;;;21.95;8.20;;;13.30;99.90;;;;;;5031251;28;20168;-60
2022/05/15 03:50:44;;;;;;;25.48;9.23;;;13.20;99.90;;;;;;5031403;28;20048;-61
2022/05/15 03:53:12;;;;;;;18.48;7.75;;;13.10;99.90;;;;;;5063717;28;20058;-60
2022/05/15 03:55:40;;;;;;;19.45;8.57;;;13.10;99.90;;;;;;5029832;28;20049;-61
2022/05/15 03:58:07;;;;;;;21.27;9.32;;;13.00;99.90;;;;;;5030449;28;20511;-60
2022/05/15 04:00:35;;;;;;;18.15;8.25;;;12.90;99.90;;;;;;5045827;28;20053;-61
2022/05/15 04:03:03;;;;;;;25.50;9.93;;;12.90;99.90;;;;;;5030077;28;20045;-60
2022/05/15 04:05:31;;;;;;;20.98;9.35;;;12.80;99.90;;;;;;5030845;28;20049;-60
2022/05/15 04:07:59;;;;;;;20.30;9.68;;;12.80;99.90;;;;;;5031383;28;20042;-60
2022/05/15 04:10:29;;;;;;;21.98;9.32;;;12.70;99.90;;;;;;5031510;28;20429;-60
2022/05/15 04:12:57;;;;;;;;;;;12.70;99.90;;;;;;5033533;28;20401;-61
2022/05/15 04:15:24;;;;;;;17.75;8.38;;;12.70;99.90;;;;;;5029346;28;19921;-60
2022/05/15 04:17:52;;;;;;;26.02;9.73;;;12.70;99.90;;;;;;5030180;28;20042;-60
2022/05/15 04:20:23;;;;;;;22.02;8.77;;;12.70;99.90;;;;;;5029820;28;20068;-60
2022/05/15 04:22:51;;;;;;;16.05;9.02;;;12.70;99.90;;;;;;5062775;28;20424;-60
2022/05/15 04:25:19;;;;;;;23.80;9.00;;;12.80;99.90;;;;;;5063528;28;20049;-60
2022/05/15 04:27:48;;;;;;;25.67;8.98;;;12.80;99.90;;;;;;5033381;28;20056;-59
2022/05/15 04:30:19;;;;;;;19.85;8.77;;;12.80;99.90;;;;;;5035036;28;20041;-60
2022/05/15 04:32:47;;;;;;;23.70;10.25;;;12.90;99.90;;;;;;5067072;28;20057;-60
2022/05/15 04:35:15;;;;;;;18.77;8.38;;;12.90;99.90;;;;;;5035101;28;20072;-60
2022/05/15 04:37:42;;;;;;;22.60;9.18;;;12.90;99.90;;;;;;5033386;28;20504;-63
2022/05/15 04:40:11;;;;;;;23.77;9.70;;;13.00;99.90;;;;;;5034588;28;20057;-63
2022/05/15 04:42:41;;;;;;;16.83;7.85;;;13.00;99.90;;;;;;5034539;28;20046;-64
2022/05/15 04:45:09;;;;;;;18.17;8.60;;;13.00;99.90;;;;;;5034281;28;20041;-67
2022/05/15 04:47:37;;;;;;;22.63;8.95;;;12.90;99.90;;;;;;5026679;28;20513;-65
2022/05/15 04:50:05;;;;;;;16.52;8.10;;;13.00;99.90;;;;;;5014690;28;20065;-65
2022/05/15 04:52:33;;;;;;;20.00;8.38;;;13.00;99.90;;;;;;5019205;28;20057;-64
2022/05/15 04:55:01;;;;;;;21.42;8.50;;;13.10;99.90;;;;;;5031139;28;20341;-63
2022/05/15 04:57:28;;;;;;;17.10;7.25;;;13.10;99.90;;;;;;5046652;28;20050;-64
2022/05/15 04:59:56;;;;;;;15.77;7.90;;;13.10;99.90;;;;;;5030832;28;20053;-65
2022/05/15 05:02:24;;;;;;;19.77;7.93;;;13.10;99.90;;;;;;5020965;28;20117;-60
2022/05/15 05:04:51;;;;;;;18.08;8.43;;;13.10;99.90;;;;;;5009771;28;20512;-66
2022/05/15 05:07:19;;;;;;;18.67;6.90;;;13.20;99.90;;;;;;5012372;28;20061;-61
2022/05/15 05:09:47;;;;;;;20.17;7.30;;;13.10;99.90;;;;;;5029259;28;20054;-62
2022/05/15 05:12:14;;;;;;;17.52;7.40;;;13.20;99.90;;;;;;5032771;28;20060;-62
2022/05/15 05:14:42;;;;;;;17.35;7.18;;;13.20;99.90;;;;;;5031004;28;20053;-62
2022/05/15 05:17:13;;;;;;;18.90;7.28;;;13.20;99.90;;;;;;5029216;28;20092;-60
2022/05/15 05:19:42;;;;;;;17.48;6.72;;;13.20;99.90;;;;;;5009385;28;20042;-60
2022/05/15 05:22:09;;;;;;;11.85;6.80;;;13.30;99.90;;;;;;5010161;28;20513;-60
2022/05/15 05:24:37;;;;;;;14.00;7.13;;;13.20;99.90;;;;;;5029073;28;20056;-60
2022/05/15 05:27:05;;;;;;;15.48;6.50;;;13.30;99.90;;;;;;5030257;28;20037;-61
2022/05/15 05:29:33;;;;;;;17.35;6.80;;;13.30;99.90;;;;;;5031731;28;20046;-60
2022/05/15 05:32:01;;;;;;;16.10;6.18;;;13.30;99.90;;;;;;5030018;28;20049;-61
2022/05/15 05:34:28;;;;;;;10.88;6.07;;;13.30;99.90;;;;;;5011413;28;20054;-62
2022/05/15 05:36:56;;;;;;;13.63;6.68;;;13.30;99.90;;;;;;5025461;28;20502;-60
2022/05/15 05:39:29;;;;;;;12.95;6.30;;;13.40;99.90;;;;;;5031588;28;20501;-62
2022/05/15 05:41:57;;;;;;;20.83;6.60;;;13.40;99.90;;;;;;5031065;28;20424;-60
2022/05/15 05:44:26;;;;;;;16.00;6.55;;;13.40;99.90;;;;;;5031375;28;20053;-63
2022/05/15 05:46:54;;;;;;;16.60;6.18;;;13.40;99.90;;;;;;5061151;28;20049;-61
2022/05/15 05:49:21;;;;;;;16.60;7.65;;;13.40;99.90;;;;;;5024921;28;20041;-67
2022/05/15 05:51:49;;;;;;;17.15;7.20;;;13.40;99.90;;;;;;5028295;28;20045;-63
2022/05/15 05:54:16;;;;;;;13.35;6.60;;;13.40;99.90;;;;;;5027495;28;20397;-62
2022/05/15 05:56:44;;;;;;;17.08;7.53;;;13.50;99.90;;;;;;5022113;28;20477;-67
2022/05/15 05:59:12;;;;;;;18.33;8.18;;;13.50;99.90;;;;;;5020744;28;20156;-67
2022/05/15 06:01:39;;;;;;;16.60;7.70;;;13.50;99.90;;;;;;5027485;28;20057;-66
2022/05/15 06:06:56;;;;;;;17.65;6.93;;;13.60;99.90;;;;;;5029857;28;20046;-67
2022/05/15 06:09:23;;;;;;;17.65;7.70;;;13.70;99.90;;;;;;5026163;28;20041;-66
2022/05/15 06:11:51;;;;;;;23.73;7.32;;;13.70;99.90;;;;;;5029700;28;20060;-66
2022/05/15 06:14:18;;;;;;;18.85;7.40;;;13.70;99.90;;;;;;5029601;28;20049;-66
2022/05/15 06:16:46;;;;;;;18.23;6.88;;;13.80;99.90;;;;;;5027863;28;20512;-64
2022/05/15 06:19:13;;;;;;;17.05;7.43;;;13.90;99.90;;;;;;5028978;28;20049;-67
2022/05/15 06:21:41;;;;;;;19.45;7.85;;;13.90;99.90;;;;;;5027984;28;20489;-66
2022/05/15 06:24:09;;;;;;;20.83;7.82;;;14.00;99.90;;;;;;5025537;28;20065;-61
2022/05/15 06:26:36;;;;;;;16.52;7.07;;;14.10;99.90;;;;;;5026671;28;20060;-64
2022/05/15 06:29:04;;;;;;;15.90;7.90;;;14.10;99.90;;;;;;5025437;28;20072;-61
2022/05/15 06:31:32;;;;;;;19.55;7.50;;;14.20;99.90;;;;;;5017404;28;20420;-62
2022/05/15 06:34:00;;;;;;;13.13;7.40;;;14.30;99.90;;;;;;5023758;28;20045;-66
2022/05/15 06:36:27;;;;;;;18.00;6.63;;;14.30;99.90;;;;;;5027595;28;20512;-66
2022/05/15 06:38:55;;;;;;;21.25;7.00;;;14.30;99.90;;;;;;5029948;28;20387;-61
2022/05/15 06:41:23;;;;;;;19.13;7.30;;;14.30;99.90;;;;;;5028503;28;20603;-60
2022/05/15 06:43:51;;;;;;;17.13;6.82;;;14.30;99.90;;;;;;5029453;28;20485;-62
2022/05/15 06:46:18;;;;;;;18.98;7.38;;;14.30;99.90;;;;;;5028251;28;20481;-63
2022/05/15 06:48:46;;;;;;;17.20;6.60;;;14.30;99.90;;;;;;5027987;28;20045;-60
2022/05/15 06:51:16;;;;;;;19.75;6.97;;;14.30;99.90;;;;;;5029718;28;20033;-66
2022/05/15 06:53:44;;;;;;;;;;;14.20;99.90;;;;;;5029004;28;20516;-66
2022/05/15 06:58:59;;;;;;;22.40;8.65;;;14.20;99.90;;;;;;5027665;28;20064;-65
2022/05/15 07:01:26;;;;;;;24.33;8.00;;;14.30;99.90;;;;;;5028118;28;20050;-63
2022/05/15 07:03:54;;;;;;;17.63;7.30;;;14.30;99.90;;;;;;5020616;28;20045;-67
2022/05/15 07:06:23;;;;;;;18.65;7.78;;;14.30;99.90;;;;;;5026252;28;20041;-66
2022/05/15 07:08:50;;;;;;;17.42;7.32;;;14.30;99.90;;;;;;5028087;28;20513;-67
2022/05/15 07:11:18;;;;;;;19.35;8.00;;;14.40;99.90;;;;;;5028116;28;20060;-66
2022/05/15 07:13:46;;;;;;;24.30;7.80;;;14.40;99.90;;;;;;5060649;28;20100;-67
2022/05/15 07:16:13;;;;;;;18.15;7.22;;;14.50;99.90;;;;;;5028457;28;20057;-62
2022/05/15 07:18:41;;;;;;;16.48;6.53;;;14.50;99.90;;;;;;5024992;28;20045;-61
2022/05/15 07:21:09;;;;;;;10.25;5.93;;;14.50;99.90;;;;;;5026341;28;20064;-61
2022/05/15 07:23:37;;;;;;;19.38;6.38;;;14.50;99.90;;;;;;5027706;28;20045;-61
2022/05/15 07:26:06;;;;;;;13.77;6.55;;;14.50;99.90;;;;;;5026320;28;20048;-62
2022/05/15 07:28:34;;;;;;;14.60;7.32;;;14.50;99.90;;;;;;5027094;28;20041;-64
2022/05/15 07:31:01;;;;;;;18.65;7.18;;;14.50;99.90;;;;;;5019568;28;20054;-60
2022/05/15 07:33:29;;;;;;;20.20;7.30;;;14.40;99.90;;;;;;5017086;28;20057;-61
2022/05/15 07:35:57;;;;;;;16.95;6.32;;;14.40;99.90;;;;;;5026220;28;20044;-62
2022/05/15 07:38:25;;;;;;;13.50;5.53;;;14.40;99.90;;;;;;5027694;28;20049;-60
2022/05/15 07:40:52;;;;;;;19.42;5.90;;;14.40;99.90;;;;;;5028824;28;20053;-61
2022/05/15 07:43:20;;;;;;;14.77;5.18;;;14.30;99.90;;;;;;5025964;28;20417;-60
2022/05/15 07:45:48;;;;;;;14.85;5.75;;;14.30;99.90;;;;;;5028879;28;20048;-61
2022/05/15 07:48:15;;;;;;;17.95;7.43;;;14.20;99.90;;;;;;5016344;28;20461;-60
2022/05/15 07:50:43;;;;;;;20.55;5.70;;;14.10;99.90;;;;;;5022657;28;20217;-62
2022/05/15 07:53:11;;;;;;;16.38;5.60;;;14.10;99.90;;;;;;5012982;28;20034;-61
2022/05/15 07:55:39;;;;;;;12.20;5.47;;;14.10;99.90;;;;;;5028747;28;20061;-61
2022/05/15 07:58:07;;;;;;;12.52;5.53;;;14.00;99.90;;;;;;5027084;28;20482;-60
2022/05/15 08:00:35;;;;;;;19.83;7.43;;;14.10;99.90;;;;;;5028452;28;20045;-61
2022/05/15 08:03:07;;;;;;;16.13;5.55;;;14.10;99.90;;;;;;5028703;28;20473;-60
2022/05/15 08:08:26;;;;;;;12.38;5.07;;;14.00;99.90;;;;;;5025301;28;20061;-61
2022/05/15 08:10:54;;;;;;;19.17;5.82;;;14.00;99.90;;;;;;5028658;28;20444;-61
2022/05/15 08:13:28;;;;;;;14.20;5.47;;;14.10;99.90;;;;;;5024779;28;20046;-60
2022/05/15 08:15:56;;;;;;;13.45;5.25;;;14.10;99.90;;;;;;5010256;28;20050;-60
2022/05/15 08:23:59;;;;;;;11.80;6.03;;;14.30;99.90;;;;;;5027198;28;20516;-60
2022/05/15 08:26:28;;;;;;;19.92;4.85;;;14.30;99.90;;;;;;5045000;28;20055;-63
2022/05/15 08:28:57;;;;;;;11.77;4.53;;;14.40;99.90;;;;;;5027431;28;20618;-66
2022/05/15 08:31:25;;;;;;;11.55;5.20;;;14.50;99.90;;;;;;5027769;28;20038;-65
2022/05/15 08:33:55;;;;;;;9.38;4.35;;;14.60;99.90;;;;;;5026095;28;20076;-63
2022/05/15 08:36:22;;;;;;;10.60;4.47;;;14.80;99.90;;;;;;5013912;28;20048;-64
2022/05/15 08:38:51;;;;;;;12.45;3.97;;;14.90;99.90;;;;;;5028399;28;20500;-67
2022/05/15 08:41:35;;;;;;;12.10;3.90;;;15.00;99.90;;;;;;5028619;28;20511;-66
2022/05/15 08:44:19;;;;;;;12.93;4.38;;;15.20;99.90;;;;;;5027434;28;20385;-66
2022/05/15 08:47:15;;;;;;;7.57;3.63;;;15.40;99.90;;;;;;5018792;28;20052;-68
2022/05/15 08:50:06;;;;;;;11.23;3.58;;;15.60;99.90;;;;;;5021090;28;20624;-62
2022/05/15 08:52:53;;;;;;;10.18;3.75;;;15.80;99.90;;;;;;5010353;28;20528;-62
2022/05/15 08:55:33;;;;;;;11.93;3.55;;;15.80;99.90;;;;;;5028982;28;20045;-64
2022/05/15 08:58:13;;;;;;;9.88;3.47;;;15.80;99.90;;;;;;5010634;28;20050;-62
2022/05/15 09:00:46;;;;;;;8.75;3.17;;;15.90;99.90;;;;;;5027224;28;20421;-60
2022/05/15 09:03:22;;;;;;;9.88;3.13;;;15.90;99.90;;;;;;5038283;28;20034;-60
2022/05/15 09:06:05;;;;;;;12.75;3.13;;;15.90;99.90;;;;;;5020163;28;20055;-60
2022/05/15 09:08:51;;;;;;;12.35;3.33;;;15.90;99.90;;;;;;5036574;28;20049;-61
2022/05/15 09:11:53;;;;;;;9.20;3.33;;;15.80;99.90;;;;;;5028157;28;20065;-61
2022/05/15 09:14:39;;;;;;;14.32;3.22;;;15.80;99.90;;;;;;5012582;28;20058;-60
2022/05/15 09:17:41;;;;;;;13.15;3.58;;;15.80;99.90;;;;;;5018502;28;20519;-61
2022/05/15 09:20:36;;;;;;;8.55;3.42;;;15.80;99.90;;;;;;5024019;28;20057;-61
2022/05/15 09:23:24;;;;;;;12.63;3.30;;;15.90;99.90;;;;;;5032553;28;20038;-60
2022/05/15 09:25:54;;;;;;;7.25;3.53;;;15.90;99.90;;;;;;5031441;28;20038;-60
2022/05/15 09:28:26;;;;;;;15.30;3.45;;;16.00;99.90;;;;;;5032311;28;20401;-59
2022/05/15 09:30:57;;;;;;;9.13;3.47;;;16.10;99.90;;;;;;5017622;28;20034;-60
2022/05/15 09:33:40;;;;;;;9.20;3.10;;;16.10;99.90;;;;;;5009083;28;20050;-60
2022/05/15 09:36:48;;;;;;;14.68;3.25;;;16.10;99.90;;;;;;5028222;28;20045;-60
2022/05/15 09:39:39;;;;;;;15.38;3.60;;;16.10;99.90;;;;;;5009636;28;20058;-60
2022/05/15 09:45:07;;;;;;;11.82;3.78;;;16.10;99.90;;;;;;5027299;28;20515;-63
2022/05/15 09:47:40;;;;;;;7.13;3.15;;;16.10;99.90;;;;;;5032001;28;20042;-61
2022/05/15 09:50:42;;;;;;;14.10;3.72;;;16.20;99.90;;;;;;5025430;28;20044;-61
2022/05/15 09:53:43;;;;;;;13.30;3.95;;;16.30;99.90;;;;;;5013346;28;20046;-61
2022/05/15 09:56:20;;;;;;;16.23;4.35;;;16.60;99.90;;;;;;5030100;28;20397;-68
2022/05/15 09:58:50;;;;;;;17.77;4.90;;;17.00;99.90;;;;;;5028389;28;20054;-62
2022/05/15 10:01:30;;;;;;;11.30;3.78;;;17.30;99.90;;;;;;5031442;28;20056;-63
2022/05/15 10:03:59;;;;;;;13.63;4.65;;;17.50;99.90;;;;;;5029732;28;20053;-62
2022/05/15 10:06:30;;;;;;;13.30;4.22;;;17.80;99.90;;;;;;5025120;28;20408;-60
2022/05/15 10:09:15;;;;;;;14.50;4.10;;;18.00;99.90;;;;;;5031215;28;20048;-61
2022/05/15 10:11:47;;;;;;;18.73;4.90;;;18.20;99.90;;;;;;5013971;28;20042;-61
2022/05/15 10:14:24;;;;;;;9.60;3.83;;;18.30;99.90;;;;;;5031325;28;20033;-62
2022/05/15 10:16:57;;;;;;;11.88;3.83;;;18.40;99.90;;;;;;5030822;28;20049;-68
2022/05/15 10:19:32;;;;;;;13.55;5.60;;;18.30;99.90;;;;;;5031139;28;20061;-67
2022/05/15 10:22:25;;;;;;;12.07;3.72;;;18.40;99.90;;;;;;5027374;28;20041;-67
2022/05/15 10:25:22;;;;;;;12.80;4.35;;;18.50;99.90;;;;;;5030075;28;20052;-66
2022/05/15 10:27:57;;;;;;;11.70;4.00;;;18.70;99.90;;;;;;5026922;28;20037;-67
2022/05/15 10:30:32;;;;;;;13.38;4.50;;;18.80;99.90;;;;;;5026584;28;20045;-62
2022/05/15 10:33:10;;;;;;;9.13;3.60;;;19.00;99.90;;;;;;5029778;28;20057;-63
2022/05/15 10:35:45;;;;;;;13.73;4.25;;;19.10;99.90;;;;;;5023326;28;20516;-63
2022/05/15 10:38:21;;;;;;;16.00;4.40;;;19.20;99.90;;;;;;5019690;28;20044;-65
2022/05/15 10:41:11;;;;;;;9.48;3.50;;;19.30;99.90;;;;;;5013494;28;20604;-64
2022/05/15 10:43:44;;;;;;;13.48;4.10;;;19.50;99.90;;;;;;5012095;28;20487;-65
2022/05/15 10:46:47;;;;;;;14.88;4.10;;;19.60;99.90;;;;;;5031039;28;20046;-67
2022/05/15 10:49:18;;;;;;;11.25;4.18;;;19.80;99.90;;;;;;5011786;28;20041;-68
2022/05/15 10:52:12;;;;;;;10.55;4.03;;;19.90;99.90;;;;;;5011030;28;20046;-67
2022/05/15 10:58:09;;;;;;;12.80;4.97;;;20.10;99.90;;;;;;5019221;28;20065;-64
2022/05/15 11:01:00;;;;;;;14.48;3.78;;;20.30;99.90;;;;;;5026611;28;20033;-67
2022/05/15 11:03:50;;;;;;;14.30;3.63;;;20.40;99.90;;;;;;5019725;28;20041;-67
2022/05/15 11:06:46;;;;;;;8.32;3.40;;;20.70;99.90;;;;;;5023196;28;20485;-67
2022/05/15 11:09:37;;;;;;;11.43;3.70;;;20.90;99.90;;;;;;5037381;28;20042;-67
2022/05/15 11:12:52;;;;;;;15.75;4.25;;;21.10;99.90;;;;;;5010421;28;20532;-66
2022/05/15 11:15:41;;;;;;;11.85;4.70;;;21.20;99.90;;;;;;5010096;28;20512;-67
2022/05/15 11:18:31;;;;;;;26.63;4.78;;;21.20;99.90;;;;;;5018129;28;20042;-68
2022/05/15 11:21:01;;;;;;;;;;;21.30;99.90;;;;;;5030870;28;20099;-67
2022/05/15 11:23:36;;;;;;;18.23;5.45;;;21.20;99.90;;;;;;5030636;28;19924;-67
2022/05/15 11:26:15;;;;;;;18.25;5.63;;;21.00;99.90;;;;;;5011110;28;20507;-60
2022/05/15 11:28:47;;;;;;;15.80;5.30;;;20.90;99.90;;;;;;5022357;28;20053;-62
2022/05/15 11:31:21;;;;;;;12.40;5.15;;;20.70;99.90;;;;;;5030208;28;20041;-61
2022/05/15 11:33:55;;;;;;;15.13;5.50;;;20.70;99.90;;;;;;5028977;28;20786;-60
2022/05/15 11:36:22;;;;;;;15.80;5.13;;;20.90;99.90;;;;;;5029436;28;20045;-60
2022/05/15 11:39:19;;;;;;;15.13;5.85;;;21.10;99.90;;;;;;5029386;28;20053;-61
2022/05/15 11:42:08;;;;;;;15.07;5.82;;;21.40;99.90;;;;;;5010121;28;20050;-62
2022/05/15 11:44:44;;;;;;;15.40;4.78;;;21.70;99.90;;;;;;5010511;28;20042;-61
2022/05/15 11:47:20;;;;;;;17.88;6.03;;;22.00;99.90;;;;;;5010398;28;20049;-61
2022/05/15 11:50:20;;;;;;;14.23;5.45;;;22.20;99.30;;;;;;5010058;28;20041;-61
2022/05/15 11:52:54;;;;;;;13.57;5.97;;;22.40;99.00;;;;;;5010338;28;20042;-61
2022/05/15 11:55:39;;;;;;;13.65;5.93;;;22.70;99.30;;;;;;5017444;28;20425;-64
2022/05/15 11:58:27;;;;;;;19.58;6.63;;;23.10;99.30;;;;;;5015934;28;20416;-63
2022/05/15 12:01:03;;;;;;;11.18;5.75;;;23.30;96.90;;;;;;5025791;28;20042;-62
2022/05/15 12:03:59;;;;;;;16.75;5.65;;;23.40;96.90;;;;;;5008637;28;20050;-62
2022/05/15 12:06:32;;;;;;;17.10;5.65;;;23.50;96.50;;;;;;5010132;28;20061;-63
2022/05/15 12:09:20;;;;;;;13.80;5.78;;;23.60;95.80;;;;;;5016074;28;20390;-65
2022/05/15 12:11:49;;;;;;;17.67;5.80;;;23.70;94.90;;;;;;5009629;28;20046;-63
2022/05/15 12:14:26;;;;;;;19.77;5.05;;;23.70;95.50;;;;;;5009526;28;20042;-66
2022/05/15 12:17:12;;;;;;;18.15;5.88;;;23.90;94.90;;;;;;5010081;28;20041;-67
2022/05/15 12:19:43;;;;;;;17.95;5.10;;;24.00;93.60;;;;;;5029372;28;20045;-68
2022/05/15 12:22:13;;;;;;;17.88;6.30;;;24.10;93.30;;;;;;5029487;28;20473;-61
2022/05/15 12:24:48;;;;;;;23.30;5.65;;;24.20;93.60;;;;;;5025086;28;20049;-61
2022/05/15 12:27:26;;;;;;;14.70;5.10;;;24.20;93.10;;;;;;5009644;28;20054;-63
2022/05/15 12:29:56;;;;;;;18.20;5.35;;;24.30;92.00;;;;;;5028496;28;20038;-68
2022/05/15 12:32:39;;;;;;;12.35;4.93;;;24.30;91.80;;;;;;5029148;28;20052;-67
2022/05/15 12:35:14;;;;;;;12.90;4.40;;;24.70;90.90;;;;;;5029498;28;20068;-68
2022/05/15 12:37:59;;;;;;;13.77;4.75;;;24.90;90.90;;;;;;5029391;28;20425;-62
2022/05/15 12:40:31;;;;;;;12.52;3.88;;;25.10;90.10;;;;;;5020152;28;20157;-62
2022/05/15 12:42:59;;;;;;;15.60;5.45;;;25.10;87.30;;;;;;5009530;28;20056;-64
2022/05/15 12:45:31;;;;;;;12.23;5.13;;;25.10;86.50;;;;;;5008602;28;20061;-67
2022/05/15 12:48:11;;;;;;;15.00;4.03;;;25.10;86.20;;;;;;5018350;28;20523;-67
2022/05/15 12:51:02;;;;;;;;;;;25.10;87.00;;;;;;5033442;28;20050;-65
2022/05/15 12:53:37;;;;;;;11.88;4.28;;;25.30;85.70;;;;;;5033143;28;19920;-68
2022/05/15 12:56:24;;;;;;;15.55;4.70;;;25.40;85.20;;;;;;5019420;28;20505;-67
2022/05/15 12:58:56;;;;;;;11.25;4.40;;;25.50;84.10;;;;;;5026092;28;20042;-67
2022/05/15 13:01:30;;;;;;;9.98;3.78;;;25.50;83.50;;;;;;5033032;28;20056;-65
2022/05/15 13:04:02;;;;;;;17.88;5.85;;;25.50;84.50;;;;;;5032799;28;20041;-65
2022/05/15 13:06:39;;;;;;;9.85;4.72;;;25.60;83.70;;;;;;5032836;28;20469;-67
2022/05/15 13:09:09;;;;;;;15.13;5.25;;;25.60;81.60;;;;;;5032494;28;20061;-67
2022/05/15 13:11:46;;;;;;;14.68;5.28;;;25.20;81.70;;;;;;5015319;28;20042;-67
2022/05/15 13:14:30;;;;;;;10.85;4.38;;;24.60;82.80;;;;;;5012887;28;20045;-67
2022/05/15 13:16:59;;;;;;;14.63;5.63;;;24.10;84.90;;;;;;5011551;28;20057;-62
2022/05/15 13:19:36;;;;;;;13.55;5.13;;;23.60;86.10;;;;;;5030620;28;20062;-61
2022/05/15 13:22:04;;;;;;;14.88;4.95;;;23.20;87.70;;;;;;5032624;28;20042;-61
2022/05/15 13:24:33;;;;;;;14.13;4.85;;;22.80;88.80;;;;;;5032646;28;20478;-67
2022/05/15 13:27:05;;;;;;;15.60;4.88;;;22.50;90.00;;;;;;5031106;28;20045;-67
2022/05/15 13:29:36;;;;;;;12.68;4.00;;;22.20;90.60;;;;;;5032369;28;20053;-67